Saratoga, WY (82331)

10:02 AM MDT on July 26, 2017 (GMT -0600)
KTGA - KBDY Radio | | Change Station

Elev 6785 ft 41.45 °N, 106.81 °W | Updated 2 minutes ago

Overcast
Overcast
64.3 °F
Feels Like 64.3 °F
N
2.0
Wind Variable Wind from NNW
Gusts 2.0 mph

Today
High -- | Low -- °F
--% Chance of Precip.
Yesterday
High -- | Low -- °F
Precip. -- in
Pressure 30.37 in
Visibility 10.0 miles
Clouds Scattered Clouds 1500 ft
Mostly Cloudy 2600 ft
Overcast 3800 ft
Dew Point 60 °F
Humidity 85%
Rainfall 0.22 in
Snow Depth Not available.
5:56 AM 8:30 PM
Waxing Crescent, 14% visible
METAR KSAA 261555Z AUTO 35007KT 292V002 10SM SCT015 BKN026 OVC038 17/15 A3037 RMK AO2
Pressure 30.37 in
Visibility 10.0 miles
Clouds Scattered Clouds 1500 ft
Mostly Cloudy 2600 ft
Overcast 3800 ft
Dew Point 60 °F
Humidity 85%
Rainfall 0.22 in
Snow Depth Not available.
5:56 AM 8:30 PM
Waxing Crescent, 14% visible
METAR KSAA 261555Z AUTO 35007KT 292V002 10SM SCT015 BKN026 OVC038 17/15 A3037 RMK AO2

Get Severe Weather Alerts

Thanks for signing up!

Be on the lookout for a verification email in your inbox.

You'll start receiving the daily forecast at 6 AM.

×

10-Day Weather Forecast

Almanac

Astronomy

Jul. 26, 2017 Rise Set
Actual Time
Civil Twilight
Nautical Twilight
Astronomical Twilight
Moon
Length of Visible Light
Length of Day
Tomorrow will be .
, % of the Moon is Illuminated

Today's Extremes

State Highs State Lows

Community

WunderPhotos

Category 6

Welcome to Category 6. This is the collective home for Weather Underground's featured writeups by Dr. Jeff Masters (right), Bob Henson (left), Chris Burt, and other regular contributors.

Nearby

Air Quality

  Air Quality AQ Index Pollutant
Not available.

Snow Depth

Station Depth Elevation

Earthquake Activity

City Distance Mag. Time & Date
Minimum magnitude displayed is 2.5.

Coastal Water Temperatures

Place Temperature

Stations

Nearby Weather Stations

Station Location Temp. Windchill Dew Point Humidity Wind Precip. Elev Updated Type
                   

Watches & Warnings

There are currently no watches in effect.